Time;durP1;ratioP1;P1;durP2;ratioP2;P2;SDS_P1;SDS_P2;PMS_P1;PMS_P2;Temp;Humidity;BMP_temperature;BMP_pressure;BME280_temperature;BME280_humidity;BME280_pressure;Samples;Min_cycle;Max_cycle;Signal;HPM_P1;HPM_P2
2024/04/04 00:00:24;;;;;;;3.20;1.02;;;;;;;31.08;26.91;98156.75;7402442;19;20348;-59
2024/04/04 00:02:51;;;;;;;1.60;1.23;;;;;;;31.09;26.87;98158.22;7398298;19;20038;-59
2024/04/04 00:05:17;;;;;;;1.55;0.93;;;;;;;31.06;26.73;98162.41;7399239;19;20118;-59
2024/04/04 00:07:44;;;;;;;1.05;0.85;;;;;;;30.96;27.07;98159.16;7399922;19;20031;-59
2024/04/04 00:10:10;;;;;;;0.50;0.50;;;;;;;30.86;26.98;98170.25;7401089;19;20018;-59
2024/04/04 00:12:36;;;;;;;1.27;1.27;;;;;;;30.90;26.90;98164.66;7400126;19;20014;-59
2024/04/04 00:15:02;;;;;;;0.90;0.90;;;;;;;30.83;27.04;98160.03;7398780;19;20019;-59
2024/04/04 00:17:28;;;;;;;4.70;1.00;;;;;;;31.91;26.03;98163.47;7399144;19;20017;-59
2024/04/04 00:19:55;;;;;;;1.05;0.57;;;;;;;30.72;27.14;98155.28;7401582;19;20355;-59
2024/04/04 00:22:21;;;;;;;1.02;0.65;;;;;;;30.35;27.82;98153.06;7394062;19;20032;-59
2024/04/04 00:24:47;;;;;;;1.25;1.20;;;;;;;30.84;26.96;98152.88;7394918;19;20049;-59
2024/04/04 00:27:14;;;;;;;0.95;0.90;;;;;;;30.51;27.35;98155.84;7394738;19;20003;-59
2024/04/04 00:29:40;;;;;;;4.57;0.82;;;;;;;30.36;27.59;98148.78;7396761;19;20481;-59
2024/04/04 00:32:06;;;;;;;0.63;0.50;;;;;;;30.51;27.47;98144.38;7395389;19;20017;-59
2024/04/04 00:34:32;;;;;;;0.35;0.35;;;;;;;30.43;27.36;98147.63;7394461;19;20015;-59
2024/04/04 00:36:58;;;;;;;1.20;0.85;;;;;;;30.52;27.39;98132.22;7395881;19;20003;-59
2024/04/04 00:39:24;;;;;;;0.22;0.22;;;;;;;30.54;27.67;98131.53;7398761;19;20470;-59
2024/04/04 00:41:50;;;;;;;1.33;1.10;;;;;;;31.15;26.80;98123.94;7401526;19;20033;-59
2024/04/04 00:44:16;;;;;;;1.50;0.82;;;;;;;29.90;27.88;98127.44;7397163;19;20458;-59
2024/04/04 00:46:43;;;;;;;1.48;1.38;;;;;;;30.99;27.19;98123.31;7397638;19;20017;-59
2024/04/04 00:49:09;;;;;;;1.90;0.65;;;;;;;30.26;27.95;98116.72;7399520;19;20049;-59
2024/04/04 00:51:35;;;;;;;2.80;1.25;;;;;;;30.21;28.04;98114.34;7397361;19;20011;-59
2024/04/04 00:54:01;;;;;;;7.30;1.50;;;;;;;30.22;27.99;98104.34;7397762;19;20011;-59
2024/04/04 00:56:28;;;;;;;1.25;1.25;;;;;;;29.81;28.70;98114.13;7397776;19;20014;-59
2024/04/04 00:58:55;;;;;;;1.00;0.70;;;;;;;29.72;28.31;98106.50;7398882;19;20010;-59
2024/04/04 01:01:21;;;;;;;2.38;1.38;;;;;;;29.74;28.41;98114.50;7396734;19;20019;-59
2024/04/04 01:03:47;;;;;;;1.88;0.98;;;;;;;29.71;28.67;98105.03;7394417;19;20418;-59
2024/04/04 01:06:26;;;;;;;1.48;0.80;;;;;;;30.27;28.16;98105.97;7397491;19;20010;-59
2024/04/04 01:08:52;;;;;;;1.13;1.13;;;;;;;29.60;28.61;98108.88;7397830;19;20018;-59
2024/04/04 01:11:18;;;;;;;2.10;0.98;;;;;;;29.73;28.87;98101.53;7400071;19;20032;-59
2024/04/04 01:13:44;;;;;;;2.22;1.77;;;;;;;29.70;28.70;98108.56;7396829;19;20066;-59
2024/04/04 01:16:10;;;;;;;0.73;0.50;;;;;;;29.93;28.56;98100.28;7395326;19;20021;-59
2024/04/04 01:18:36;;;;;;;0.68;0.68;;;;;;;29.89;28.64;98097.22;7397383;19;20011;-59
2024/04/04 01:21:03;;;;;;;0.40;0.40;;;;;;;29.97;28.73;98091.81;7400831;19;20010;-59
2024/04/04 01:23:29;;;;;;;0.28;0.28;;;;;;;30.60;28.48;98080.06;7395906;19;20010;-59
2024/04/04 01:25:55;;;;;;;0.45;0.45;;;;;;;29.94;28.87;98075.94;7396636;19;20014;-59
2024/04/04 01:28:21;;;;;;;2.47;0.80;;;;;;;29.99;28.58;98076.84;7395701;19;20458;-59
2024/04/04 01:30:47;;;;;;;1.17;1.08;;;;;;;29.80;29.05;98083.91;7398170;19;20483;-58
2024/04/04 01:33:13;;;;;;;1.08;1.05;;;;;;;29.60;28.85;98077.31;7396756;19;20035;-58
2024/04/04 01:35:39;;;;;;;0.17;0.17;;;;;;;29.32;29.46;98076.06;7395437;19;20010;-58
2024/04/04 01:38:06;;;;;;;0.52;0.52;;;;;;;29.48;28.85;98068.16;7395886;19;20395;-58
2024/04/04 01:40:32;;;;;;;25.80;1.02;;;;;;;29.27;29.48;98071.50;7395393;19;20015;-58
2024/04/04 01:42:58;;;;;;;0.35;0.35;;;;;;;29.55;28.87;98063.41;7397814;19;20018;-58
2024/04/04 01:45:24;;;;;;;0.50;0.45;;;;;;;29.59;29.11;98060.72;7396549;19;20011;-58
2024/04/04 01:47:50;;;;;;;0.30;0.30;;;;;;;30.56;28.28;98056.91;7396157;19;20474;-58
2024/04/04 01:50:16;;;;;;;0.65;0.65;;;;;;;31.19;27.76;98057.19;7396195;19;20019;-58
2024/04/04 01:52:42;;;;;;;0.28;0.28;;;;;;;31.32;27.28;98056.97;7397807;19;20015;-58
2024/04/04 01:55:08;;;;;;;1.65;0.68;;;;;;;31.46;27.59;98053.16;7396271;19;20006;-58
2024/04/04 01:57:38;;;;;;;0.25;0.25;;;;;;;31.25;27.60;98048.81;7395633;19;20424;-58
2024/04/04 02:00:04;;;;;;;0.40;0.32;;;;;;;30.39;28.31;98031.81;7395691;19;20007;-58
2024/04/04 02:02:38;;;;;;;0.28;0.28;;;;;;;30.06;28.49;98026.16;7393739;19;20010;-58
2024/04/04 02:05:04;;;;;;;0.85;0.45;;;;;;;28.50;29.93;98047.84;7399428;19;20018;-58
2024/04/04 02:07:31;;;;;;;1.27;0.40;;;;;;;29.34;29.15;98056.06;7393851;19;20027;-58
2024/04/04 02:09:57;;;;;;;0.30;0.30;;;;;;;30.06;28.89;98049.84;7394897;19;20013;-58
2024/04/04 02:12:23;;;;;;;0.55;0.55;;;;;;;30.09;28.89;98048.53;7394555;19;20022;-58
2024/04/04 02:14:50;;;;;;;0.90;0.50;;;;;;;29.50;29.10;98048.16;7394943;19;20011;-58
2024/04/04 02:17:16;;;;;;;0.20;0.20;;;;;;;30.41;28.54;98049.13;7394841;19;20011;-58
2024/04/04 02:19:42;;;;;;;0.82;0.35;;;;;;;30.90;28.15;98054.66;7394497;19;20027;-58
2024/04/04 02:22:08;;;;;;;0.20;0.20;;;;;;;29.33;29.67;98066.03;7394133;19;20014;-58
2024/04/04 02:24:34;;;;;;;0.40;0.40;;;;;;;27.90;30.89;98070.63;7394359;19;20382;-58
2024/04/04 02:27:00;;;;;;;3.50;0.70;;;;;;;26.65;32.30;98077.53;7393868;19;20010;-58
2024/04/04 02:29:26;;;;;;;0.30;0.30;;;;;;;27.00;31.29;98067.38;7395369;19;20030;-58
2024/04/04 02:31:52;;;;;;;0.93;0.90;;;;;;;28.24;30.55;98066.63;7394583;19;20077;-58
2024/04/04 02:34:18;;;;;;;0.30;0.30;;;;;;;27.79;31.15;98062.91;7397888;19;20021;-58
2024/04/04 02:36:45;;;;;;;1.40;0.75;;;;;;;27.40;31.02;98062.31;7394834;19;20070;-58
2024/04/04 02:39:14;;;;;;;0.40;0.40;;;;;;;26.62;32.03;98055.94;7396591;19;20010;-58
2024/04/04 02:41:40;;;;;;;0.20;0.20;;;;;;;26.77;31.85;98047.53;7393765;19;20010;-58
2024/04/04 02:44:07;;;;;;;0.30;0.30;;;;;;;25.63;32.88;98052.38;7391892;19;20074;-58
2024/04/04 02:46:33;;;;;;;0.20;0.20;;;;;;;25.72;32.81;98045.78;7393556;19;20011;-58
2024/04/04 02:48:59;;;;;;;0.32;0.32;;;;;;;25.81;32.72;98027.78;7394566;19;20014;-58
2024/04/04 02:51:25;;;;;;;0.30;0.30;;;;;;;25.59;33.64;98018.69;7393043;19;20017;-58
2024/04/04 02:53:51;;;;;;;1.58;0.30;;;;;;;26.01;32.83;98006.13;7393459;19;20006;-58
2024/04/04 02:56:17;;;;;;;0.20;0.20;;;;;;;26.09;33.27;97990.22;7393438;19;20022;-58
2024/04/04 02:58:43;;;;;;;12.95;0.70;;;;;;;26.27;33.21;97993.34;7395198;19;20021;-58
2024/04/04 03:01:10;;;;;;;0.32;0.32;;;;;;;26.70;32.58;97993.56;7392827;19;20014;-57
2024/04/04 03:03:36;;;;;;;0.68;0.68;;;;;;;27.13;31.90;97988.00;7394138;19;20015;-57
2024/04/04 03:06:02;;;;;;;0.50;0.50;;;;;;;28.00;31.25;97978.84;7393835;19;20010;-57
2024/04/04 03:08:29;;;;;;;0.28;0.28;;;;;;;28.37;30.55;97976.34;7397056;19;20014;-57
2024/04/04 03:10:55;;;;;;;0.35;0.35;;;;;;;28.30;30.76;97972.44;7392699;19;20010;-57
2024/04/04 03:13:21;;;;;;;0.20;0.20;;;;;;;28.68;29.97;97976.38;7396982;19;20098;-57
2024/04/04 03:15:57;;;;;;;2.28;0.63;;;;;;;27.68;31.16;97975.09;7393108;19;20018;-57
2024/04/04 03:18:23;;;;;;;2.17;0.98;;;;;;;26.55;32.57;97969.19;7392305;19;20086;-57
2024/04/04 03:20:50;;;;;;;2.08;1.30;;;;;;;26.28;32.51;97966.28;7396459;19;20014;-57
2024/04/04 03:23:16;;;;;;;0.95;0.85;;;;;;;25.47;33.63;97967.38;7391870;19;20023;-57
2024/04/04 03:25:43;;;;;;;0.20;0.20;;;;;;;26.79;32.07;97972.66;7393096;19;20010;-57
2024/04/04 03:28:09;;;;;;;0.20;0.20;;;;;;;26.96;32.08;97975.69;7392491;19;20018;-57
2024/04/04 03:30:35;;;;;;;0.20;0.20;;;;;;;27.27;31.69;97977.28;7393795;19;20023;-57
2024/04/04 03:33:02;;;;;;;0.10;0.10;;;;;;;26.89;32.27;97976.03;7390987;19;20069;-57
2024/04/04 03:35:28;;;;;;;0.35;0.35;;;;;;;26.72;32.33;97980.13;7392398;19;20017;-57
2024/04/04 03:37:54;;;;;;;0.80;0.60;;;;;;;26.89;32.13;97976.03;7391254;19;20081;-57
2024/04/04 03:40:20;;;;;;;0.28;0.28;;;;;;;27.00;32.03;97981.66;7393733;19;20014;-57
2024/04/04 03:42:46;;;;;;;1.40;0.82;;;;;;;26.64;32.62;97973.97;7392398;19;20027;-57
2024/04/04 03:45:15;;;;;;;0.77;0.63;;;;;;;27.40;31.51;97971.56;7396333;19;20015;-57
2024/04/04 03:47:41;;;;;;;0.60;0.60;;;;;;;27.63;31.39;97965.59;7392104;19;20011;-57
2024/04/04 03:50:07;;;;;;;0.20;0.20;;;;;;;27.66;31.74;97963.56;7393267;19;20015;-57
2024/04/04 03:52:33;;;;;;;0.15;0.15;;;;;;;27.43;31.68;97958.88;7391623;19;20006;-57
2024/04/04 03:55:00;;;;;;;0.40;0.40;;;;;;;26.83;32.24;97962.16;7391971;19;20343;-57
2024/04/04 03:57:26;;;;;;;0.77;0.10;;;;;;;27.91;31.46;97966.25;7392460;19;20015;-57
2024/04/04 03:59:53;;;;;;;0.30;0.30;;;;;;;28.92;30.42;97959.53;7391933;19;20393;-57
2024/04/04 04:02:20;;;;;;;0.45;0.43;;;;;;;29.40;29.77;97955.19;7395513;19;20489;-57
2024/04/04 04:04:47;;;;;;;0.50;0.50;;;;;;;28.24;30.33;97957.81;7395898;19;20014;-57
2024/04/04 04:07:13;;;;;;;0.30;0.30;;;;;;;27.91;31.13;97963.38;7391636;19;20526;-57
2024/04/04 04:09:39;;;;;;;1.10;0.47;;;;;;;27.71;31.05;97959.53;7392426;19;20014;-57
2024/04/04 04:12:05;;;;;;;1.20;0.55;;;;;;;28.26;30.38;97960.06;7390907;19;20015;-57
2024/04/04 04:14:32;;;;;;;0.50;0.50;;;;;;;28.03;30.86;97961.13;7395907;19;20019;-57
2024/04/04 04:16:58;;;;;;;0.38;0.30;;;;;;;28.34;30.82;97960.44;7389598;19;20021;-57
2024/04/04 04:19:24;;;;;;;0.40;0.40;;;;;;;28.21;30.57;97962.00;7387316;19;20024;-57
2024/04/04 04:21:50;;;;;;;1.20;1.02;;;;;;;28.19;30.45;97967.63;7387475;19;20014;-57
2024/04/04 04:24:16;;;;;;;0.70;0.70;;;;;;;28.14;30.79;97960.22;7389214;19;20014;-57
2024/04/04 04:26:42;;;;;;;0.70;0.70;;;;;;;28.10;30.87;97957.16;7388473;19;20501;-57
2024/04/04 04:29:11;;;;;;;9.52;0.77;;;;;;;27.88;31.12;97956.06;7387959;19;20379;-57
2024/04/04 04:31:37;;;;;;;0.17;0.17;;;;;;;27.60;31.06;97960.41;7395978;19;20478;-57
2024/04/04 04:34:03;;;;;;;0.30;0.30;;;;;;;27.17;31.84;97953.91;7400831;19;20015;-57
2024/04/04 04:36:36;;;;;;;0.43;0.43;;;;;;;26.96;31.63;97958.56;7401453;19;20018;-57
2024/04/04 04:39:02;;;;;;;2.05;0.75;;;;;;;27.43;31.49;97946.69;7397526;19;20029;-57
2024/04/04 04:41:28;;;;;;;0.50;0.30;;;;;;;27.73;31.49;97948.19;7398775;19;20022;-57
2024/04/04 04:43:55;;;;;;;0.32;0.32;;;;;;;27.81;30.77;97948.56;7396224;19;20010;-57
2024/04/04 04:46:21;;;;;;;0.40;0.40;;;;;;;27.61;30.93;97945.44;7397625;19;20010;-57
2024/04/04 04:48:47;;;;;;;0.20;0.20;;;;;;;27.51;31.47;97944.22;7401499;19;20418;-57
2024/04/04 04:51:13;;;;;;;0.52;0.50;;;;;;;27.73;31.18;97945.31;7397413;19;20405;-57
2024/04/04 04:53:40;;;;;;;0.32;0.32;;;;;;;28.30;30.57;97929.50;7397561;19;20017;-57
2024/04/04 04:56:07;;;;;;;0.90;0.50;;;;;;;28.38;30.87;97935.59;7397357;19;20033;-57
2024/04/04 04:58:34;;;;;;;0.30;0.20;;;;;;;28.35;30.83;97931.16;7400727;19;20014;-57
2024/04/04 05:01:00;;;;;;;0.98;0.75;;;;;;;28.46;30.53;97930.22;7397794;19;20021;-57
2024/04/04 05:03:28;;;;;;;0.40;0.40;;;;;;;28.70;30.35;97932.72;7397276;19;20078;-57
2024/04/04 05:05:54;;;;;;;0.30;0.30;;;;;;;29.02;30.36;97934.91;7396266;19;20114;-57
2024/04/04 05:08:21;;;;;;;0.50;0.50;;;;;;;28.65;30.59;97928.22;7399391;19;20014;-57
2024/04/04 05:10:47;;;;;;;0.20;0.20;;;;;;;28.46;30.46;97927.38;7397288;19;20074;-57
2024/04/04 05:13:13;;;;;;;0.20;0.20;;;;;;;28.36;30.71;97929.78;7398481;19;20018;-57
2024/04/04 05:15:46;;;;;;;1.00;0.95;;;;;;;28.54;30.44;97924.16;7396806;19;20037;-57
2024/04/04 05:18:12;;;;;;;4.60;0.57;;;;;;;28.94;30.20;97922.34;7396361;19;20033;-57
2024/04/04 05:20:39;;;;;;;0.98;0.63;;;;;;;29.14;30.06;97918.25;7399412;19;20021;-57
2024/04/04 05:23:05;;;;;;;2.45;0.65;;;;;;;29.27;29.52;97919.53;7395438;19;20036;-57
2024/04/04 05:25:31;;;;;;;0.73;0.73;;;;;;;29.34;29.86;97909.78;7394264;19;20011;-57
2024/04/04 05:27:58;;;;;;;0.30;0.30;;;;;;;29.41;29.58;97900.03;7396979;19;20014;-57
2024/04/04 05:30:24;;;;;;;0.50;0.50;;;;;;;28.62;30.64;97904.47;7400700;19;20522;-57
2024/04/04 05:32:50;;;;;;;1.95;0.60;;;;;;;28.52;30.48;97906.88;7397176;19;20050;-57
2024/04/04 05:35:16;;;;;;;1.05;0.52;;;;;;;28.87;30.03;97909.16;7397044;19;20011;-57
2024/04/04 05:37:42;;;;;;;0.20;0.17;;;;;;;28.52;30.63;97907.59;7396377;19;20474;-57
2024/04/04 05:40:09;;;;;;;0.75;0.73;;;;;;;28.76;30.34;97899.38;7396052;19;20014;-57
2024/04/04 05:42:36;;;;;;;2.53;0.50;;;;;;;28.62;30.61;97898.00;7397963;19;20010;-57
2024/04/04 05:45:03;;;;;;;3.45;1.33;;;;;;;28.40;30.76;97901.31;7395711;19;20084;-57
2024/04/04 05:47:29;;;;;;;1.15;0.55;;;;;;;28.21;31.13;97907.59;7396179;19;20018;-57
2024/04/04 05:49:55;;;;;;;0.43;0.40;;;;;;;28.31;30.91;97905.19;7395813;19;20010;-57
2024/04/04 05:52:21;;;;;;;1.08;0.77;;;;;;;28.63;30.66;97910.94;7394594;19;20014;-57
2024/04/04 05:54:51;;;;;;;4.72;1.35;;;;;;;28.89;30.76;97920.72;7398453;19;20014;-57
2024/04/04 05:57:17;;;;;;;4.13;0.70;;;;;;;28.99;30.63;97924.00;7396184;19;20021;-57
2024/04/04 05:59:44;;;;;;;0.50;0.40;;;;;;;28.91;30.74;97929.41;7395212;19;20014;-57
2024/04/04 06:02:11;;;;;;;1.90;1.45;;;;;;;28.80;30.77;97930.34;7394590;19;20006;-57
2024/04/04 06:04:37;;;;;;;0.90;0.80;;;;;;;29.01;30.58;97932.69;7397185;19;20080;-57
2024/04/04 06:07:04;;;;;;;2.72;1.17;;;;;;;29.12;30.48;97929.63;7395770;19;20015;-57
2024/04/04 06:09:30;;;;;;;1.40;1.08;;;;;;;28.90;30.67;97945.09;7391362;19;20047;-57
2024/04/04 06:11:56;;;;;;;2.22;1.10;;;;;;;28.99;30.86;97941.22;7392105;19;20119;-57
2024/04/04 06:14:22;;;;;;;2.97;0.70;;;;;;;29.04;30.72;97937.13;7391462;19;20014;-57
2024/04/04 06:16:49;;;;;;;2.13;1.42;;;;;;;28.93;30.99;97947.44;7391524;19;20018;-57
2024/04/04 06:19:15;;;;;;;2.35;0.68;;;;;;;28.02;31.58;97958.91;7389613;19;20066;-57
2024/04/04 06:21:41;;;;;;;1.02;1.02;;;;;;;28.65;30.91;97959.75;7391062;19;20066;-57
2024/04/04 06:24:07;;;;;;;1.67;1.02;;;;;;;28.35;31.36;97956.91;7388692;19;20430;-57
2024/04/04 06:26:33;;;;;;;1.40;0.65;;;;;;;28.39;31.80;97968.56;7390643;19;20011;-57
2024/04/04 06:28:59;;;;;;;3.25;1.42;;;;;;;28.92;31.26;97968.13;7392700;19;20006;-57
2024/04/04 06:31:25;;;;;;;1.55;1.15;;;;;;;28.51;31.58;97986.31;7394537;19;20011;-57
2024/04/04 06:33:51;;;;;;;1.10;0.70;;;;;;;28.61;31.28;97979.63;7395753;19;20033;-57
2024/04/04 06:36:18;;;;;;;1.33;0.77;;;;;;;28.71;31.00;97985.81;7397861;19;20391;-57
2024/04/04 06:38:44;;;;;;;5.72;1.98;;;;;;;28.84;30.90;97993.56;7392694;19;20017;-57
2024/04/04 06:41:14;;;;;;;1.33;0.88;;;;;;;28.90;30.80;97991.72;7394034;19;20050;-57
2024/04/04 06:43:40;;;;;;;0.73;0.55;;;;;;;28.96;31.21;97994.84;7393457;19;20070;-57
2024/04/04 06:46:06;;;;;;;0.47;0.47;;;;;;;29.03;30.95;97992.97;7392431;19;20002;-57
2024/04/04 06:48:33;;;;;;;2.83;1.20;;;;;;;28.82;31.45;98002.81;7397703;19;20471;-57
2024/04/04 06:50:59;;;;;;;1.10;0.88;;;;;;;29.06;30.88;98003.16;7394223;19;20350;-57
2024/04/04 06:53:25;;;;;;;1.05;0.75;;;;;;;29.13;31.03;98002.03;7393197;19;20037;-57
2024/04/04 06:55:52;;;;;;;3.30;1.10;;;;;;;28.84;31.51;97999.28;7394138;19;20033;-57
2024/04/04 06:58:18;;;;;;;1.65;0.50;;;;;;;29.18;31.30;97997.97;7394712;19;20017;-57
2024/04/04 07:00:54;;;;;;;0.75;0.73;;;;;;;28.97;31.29;97999.19;7393166;19;20045;-57
2024/04/04 07:03:20;;;;;;;4.82;0.90;;;;;;;28.60;31.84;97993.19;7393043;19;20364;-57
2024/04/04 07:05:46;;;;;;;4.30;1.00;;;;;;;28.76;31.67;97998.94;7391768;19;20020;-57
2024/04/04 07:08:12;;;;;;;0.80;0.60;;;;;;;28.62;31.59;97998.28;7393430;19;20113;-57
2024/04/04 07:10:39;;;;;;;2.30;1.15;;;;;;;28.63;31.76;98008.34;7393571;19;20026;-58
2024/04/04 07:13:05;;;;;;;6.93;1.55;;;;;;;28.55;31.75;98002.94;7394093;19;20033;-57
2024/04/04 07:15:31;;;;;;;5.82;1.75;;;;;;;28.45;31.99;98017.56;7393460;19;20028;-57
2024/04/04 07:17:58;;;;;;;14.60;1.52;;;;;;;28.51;31.73;98020.69;7392257;19;20014;-57
2024/04/04 07:20:24;;;;;;;0.90;0.45;;;;;;;28.39;32.11;98025.84;7396988;19;20085;-58
2024/04/04 07:22:50;;;;;;;2.00;0.93;;;;;;;28.37;31.99;98028.59;7391960;19;20007;-57
2024/04/04 07:25:17;;;;;;;3.35;1.20;;;;;;;28.67;31.62;98025.72;7393028;19;20435;-57
2024/04/04 07:27:43;;;;;;;2.50;1.05;;;;;;;28.26;32.03;98035.22;7391009;19;20015;-58
2024/04/04 07:30:10;;;;;;;6.05;2.00;;;;;;;28.45;32.04;98034.00;7393863;19;20011;-57
2024/04/04 07:32:37;;;;;;;4.05;1.35;;;;;;;28.70;31.88;98042.34;7395698;19;20006;-57
2024/04/04 07:35:04;;;;;;;2.70;1.00;;;;;;;29.14;31.40;98032.19;7395631;19;20018;-57
2024/04/04 07:37:30;;;;;;;8.30;2.17;;;;;;;29.19;31.31;98034.59;7390538;19;20494;-58
2024/04/04 07:39:59;;;;;;;2.75;1.85;;;;;;;28.78;31.56;98037.03;7392954;19;20009;-58
2024/04/04 07:42:25;;;;;;;2.88;0.95;;;;;;;28.83;31.68;98046.53;7391294;19;20348;-58
2024/04/04 07:44:52;;;;;;;2.05;0.45;;;;;;;28.54;31.89;98053.75;7392736;19;20366;-58
2024/04/04 07:47:18;;;;;;;3.45;0.85;;;;;;;29.85;30.69;98051.13;7392572;19;20021;-58
2024/04/04 07:49:44;;;;;;;5.40;2.00;;;;;;;29.77;30.50;98058.66;7390607;19;20463;-58
2024/04/04 07:52:11;;;;;;;3.38;1.52;;;;;;;28.20;32.34;98060.72;7389270;19;20014;-59
2024/04/04 07:54:37;;;;;;;2.38;1.42;;;;;;;27.77;32.62;98057.84;7390048;19;20088;-59
2024/04/04 07:57:04;;;;;;;5.68;1.17;;;;;;;27.89;32.98;98060.56;7390442;19;20010;-59
2024/04/04 07:59:30;;;;;;;6.03;1.52;;;;;;;28.27;32.30;98062.50;7392168;19;20014;-59
2024/04/04 08:01:56;;;;;;;1.40;1.25;;;;;;;28.51;31.81;98057.94;7390961;19;20010;-59
2024/04/04 08:04:22;;;;;;;2.08;0.75;;;;;;;27.59;33.13;98067.63;7391149;19;20407;-59
2024/04/04 08:06:48;;;;;;;4.00;0.68;;;;;;;27.13;33.70;98068.00;7399772;19;20109;-59
2024/04/04 08:09:15;;;;;;;3.45;0.90;;;;;;;27.47;33.20;98072.69;7399201;19;20025;-59
2024/04/04 08:11:41;;;;;;;2.47;0.80;;;;;;;27.30;33.21;98076.06;7398962;19;20181;-59
2024/04/04 08:14:07;;;;;;;20.85;2.42;;;;;;;27.25;33.68;98085.78;7399258;19;20014;-59
2024/04/04 08:16:34;;;;;;;10.57;1.35;;;;;;;27.19;33.34;98091.19;7399826;19;20022;-59
2024/04/04 08:19:00;;;;;;;2.28;1.17;;;;;;;27.12;33.69;98089.38;7399893;19;20017;-59
2024/04/04 08:21:27;;;;;;;1.83;0.85;;;;;;;26.68;34.48;98088.41;7402683;19;20018;-59
2024/04/04 08:23:53;;;;;;;0.68;0.52;;;;;;;27.46;33.43;98103.41;7397558;19;20057;-59
2024/04/04 08:26:22;;;;;;;2.30;0.90;;;;;;;26.76;34.09;98111.75;7399141;19;20014;-59
2024/04/04 08:28:48;;;;;;;3.45;1.00;;;;;;;24.65;37.13;98125.41;7398190;19;20027;-59
2024/04/04 08:31:14;;;;;;;2.58;1.42;;;;;;;24.29;37.30;98133.69;7398911;19;20007;-59
2024/04/04 08:33:41;;;;;;;1.63;0.52;;;;;;;23.78;38.45;98135.97;7398130;19;20010;-59
2024/04/04 08:36:08;;;;;;;1.70;0.77;;;;;;;24.51;38.10;98135.13;7398319;19;20022;-59
2024/04/04 08:38:34;;;;;;;2.22;1.58;;;;;;;23.93;38.64;98132.75;7398506;19;20073;-60
2024/04/04 08:41:08;;;;;;;5.88;1.15;;;;;;;24.53;38.37;98152.34;7398412;19;20010;-60
2024/04/04 08:43:35;;;;;;;4.88;1.33;;;;;;;24.66;38.50;98151.78;7394602;19;20082;-60
2024/04/04 08:46:06;;;;;;;1.33;0.52;;;;;;;24.56;38.82;98142.59;7397595;19;20509;-60
2024/04/04 08:48:33;;;;;;;4.47;1.23;;;;;;;24.23;38.98;98150.38;7399167;19;20034;-60
2024/04/04 08:51:00;;;;;;;4.28;1.23;;;;;;;25.11;38.24;98152.50;7398961;19;20006;-60
2024/04/04 08:53:27;;;;;;;5.25;1.50;;;;;;;25.05;37.77;98155.72;7396640;19;20015;-60
2024/04/04 08:55:54;;;;;;;1.70;0.65;;;;;;;25.20;37.84;98149.56;7397474;19;20026;-60
2024/04/04 08:58:23;;;;;;;0.82;0.75;;;;;;;24.95;38.20;98146.53;7397809;19;20486;-60
2024/04/04 09:00:50;;;;;;;2.05;1.17;;;;;;;25.32;37.76;98143.84;7400925;19;20010;-60
2024/04/04 09:03:18;;;;;;;1.23;1.08;;;;;;;25.82;37.53;98140.47;7398830;19;20010;-60
2024/04/04 09:05:46;;;;;;;1.70;0.75;;;;;;;26.07;37.80;98135.59;7396856;19;20010;-60
2024/04/04 09:08:12;;;;;;;4.13;1.65;;;;;;;26.80;36.26;98156.94;7397197;19;20015;-59
2024/04/04 09:10:39;;;;;;;2.10;1.13;;;;;;;26.34;37.22;98163.56;7396771;19;20363;-60
2024/04/04 09:13:06;;;;;;;2.40;0.80;;;;;;;26.35;37.56;98170.78;7396594;19;20046;-60
2024/04/04 09:15:35;;;;;;;1.60;0.57;;;;;;;26.24;37.59;98180.13;7395147;19;20462;-60
2024/04/04 09:18:07;;;;;;;3.95;0.88;;;;;;;26.33;37.68;98184.94;7397169;19;20019;-60
2024/04/04 09:20:35;;;;;;;5.88;1.48;;;;;;;26.38;37.04;98191.63;7401715;19;20041;-59
2024/04/04 09:23:01;;;;;;;3.63;1.08;;;;;;;25.80;37.89;98203.13;7396711;19;20027;-60
2024/04/04 09:25:29;;;;;;;3.20;0.82;;;;;;;26.35;37.14;98202.19;7397417;19;20006;-60
2024/04/04 09:27:55;;;;;;;5.05;1.88;;;;;;;26.00;37.68;98205.09;7396507;19;20011;-59
2024/04/04 09:30:24;;;;;;;4.97;1.23;;;;;;;26.31;37.31;98204.81;7398367;19;20371;-60
2024/04/04 09:32:54;;;;;;;1.05;0.45;;;;;;;26.57;36.87;98209.19;7397251;19;20011;-60
2024/04/04 09:35:21;;;;;;;5.05;2.50;;;;;;;27.25;35.99;98217.28;7397174;19;20010;-60
2024/04/04 09:37:49;;;;;;;1.92;0.88;;;;;;;27.60;36.20;98214.97;7396309;19;20007;-59
2024/04/04 09:40:16;;;;;;;4.18;0.90;;;;;;;28.77;34.23;98215.31;7396544;19;20009;-59
2024/04/04 09:42:44;;;;;;;1.77;1.17;;;;;;;29.06;33.85;98209.59;7397979;19;20020;-59
2024/04/04 09:45:14;;;;;;;6.00;1.73;;;;;;;29.28;33.60;98213.53;7395684;19;20033;-60
2024/04/04 09:47:42;;;;;;;1.33;0.60;;;;;;;29.62;33.21;98222.97;7397325;19;20010;-60
2024/04/04 09:50:10;;;;;;;3.92;0.90;;;;;;;29.30;33.59;98227.97;7396651;19;20037;-60
2024/04/04 09:52:38;;;;;;;1.00;0.95;;;;;;;29.55;33.12;98212.59;7395975;19;20014;-60
2024/04/04 09:55:07;;;;;;;6.70;1.33;;;;;;;29.61;33.26;98222.22;7398860;19;20480;-60
2024/04/04 09:57:38;;;;;;;1.08;0.60;;;;;;;29.51;33.33;98230.38;7395756;19;20015;-60
2024/04/04 10:00:14;;;;;;;7.00;2.05;;;;;;;30.10;32.68;98233.06;7396074;19;20018;-59
2024/04/04 10:02:57;;;;;;;1.48;0.65;;;;;;;29.94;32.91;98235.94;7394917;19;20347;-60
2024/04/04 10:05:34;;;;;;;2.13;1.08;;;;;;;30.35;32.41;98244.22;7396001;19;20075;-60
2024/04/04 10:08:11;;;;;;;1.77;1.13;;;;;;;30.50;32.20;98238.44;7395889;19;20136;-60
2024/04/04 10:10:42;;;;;;;4.65;0.85;;;;;;;29.96;32.99;98233.16;7395245;19;20010;-60
2024/04/04 10:13:11;;;;;;;3.72;1.15;;;;;;;30.18;32.76;98230.53;7395944;19;20026;-60
2024/04/04 10:15:45;;;;;;;3.17;1.52;;;;;;;30.98;32.10;98233.25;7394558;19;20587;-59
2024/04/04 10:18:12;;;;;;;2.83;0.98;;;;;;;31.24;31.91;98226.41;7395195;19;20021;-60
2024/04/04 10:20:49;;;;;;;2.28;0.95;;;;;;;31.10;32.26;98240.22;7397004;19;20090;-60
2024/04/04 10:23:16;;;;;;;3.17;1.27;;;;;;;31.53;31.78;98239.81;7394762;19;20066;-60
2024/04/04 10:25:43;;;;;;;6.00;1.15;;;;;;;32.16;30.62;98240.03;7395213;19;20010;-60
2024/04/04 10:28:10;;;;;;;6.32;1.35;;;;;;;32.41;30.17;98233.69;7393428;19;20039;-59
2024/04/04 10:30:37;;;;;;;1.65;0.65;;;;;;;31.82;30.97;98247.34;7395336;19;20041;-59
2024/04/04 10:33:13;;;;;;;1.60;0.60;;;;;;;31.05;32.20;98261.63;7395921;19;20010;-60
2024/04/04 10:35:39;;;;;;;1.50;0.77;;;;;;;30.98;32.09;98268.50;7394941;19;20015;-60
2024/04/04 10:38:06;;;;;;;3.38;1.10;;;;;;;31.12;31.42;98260.44;7394136;19;20002;-59
2024/04/04 10:40:33;;;;;;;0.88;0.68;;;;;;;31.09;32.01;98272.53;7398282;19;20076;-60
2024/04/04 10:42:59;;;;;;;1.85;0.30;;;;;;;31.36;32.43;98277.97;7392595;19;20078;-59
2024/04/04 10:45:29;;;;;;;2.13;0.88;;;;;;;31.32;32.05;98278.53;7392848;19;20007;-59
2024/04/04 10:48:00;;;;;;;1.08;0.60;;;;;;;31.73;31.29;98275.09;7392025;19;20014;-59
2024/04/04 10:50:27;;;;;;;5.00;1.08;;;;;;;32.33;31.01;98273.78;7397593;19;20003;-59
2024/04/04 10:52:54;;;;;;;0.60;0.57;;;;;;;32.55;30.83;98271.69;7390061;19;20014;-59
2024/04/04 10:55:20;;;;;;;3.60;0.63;;;;;;;32.49;31.15;98280.13;7389693;19;20015;-59
2024/04/04 10:57:47;;;;;;;0.30;0.15;;;;;;;33.44;29.89;98272.50;7389898;19;20018;-59
2024/04/04 11:00:14;;;;;;;0.85;0.55;;;;;;;33.90;29.86;98267.41;7393554;19;20485;-59
2024/04/04 11:02:44;;;;;;;1.65;0.65;;;;;;;33.12;30.61;98276.50;7388770;19;20554;-59
2024/04/04 11:05:10;;;;;;;2.35;0.77;;;;;;;33.22;30.37;98280.47;7387942;19;20015;-60
2024/04/04 11:07:42;;;;;;;1.20;0.45;;;;;;;33.10;29.96;98282.19;7391261;19;20022;-59
2024/04/04 11:10:10;;;;;;;0.22;0.22;;;;;;;32.72;30.18;98282.38;7394096;19;20018;-59
2024/04/04 11:12:39;;;;;;;2.35;1.20;;;;;;;32.59;30.72;98274.72;7398374;19;20057;-59
2024/04/04 11:15:07;;;;;;;2.17;0.82;;;;;;;32.98;30.09;98267.38;7393346;19;20018;-59
2024/04/04 11:17:37;;;;;;;8.57;0.68;;;;;;;32.34;31.08;98277.38;7392089;19;20022;-59
2024/04/04 11:20:04;;;;;;;0.65;0.20;;;;;;;32.28;30.55;98280.78;7394665;19;20028;-59
2024/04/04 11:22:32;;;;;;;0.85;0.28;;;;;;;32.13;30.40;98275.91;7391724;19;20264;-59
2024/04/04 11:24:58;;;;;;;4.47;1.33;;;;;;;32.32;30.40;98280.19;7392706;19;20364;-59
2024/04/04 11:27:24;;;;;;;2.60;1.17;;;;;;;32.32;30.25;98286.69;7392978;19;20011;-59
2024/04/04 11:29:51;;;;;;;4.22;0.57;;;;;;;32.47;30.10;98291.59;7393535;19;20010;-59
2024/04/04 11:32:17;;;;;;;3.15;0.80;;;;;;;33.92;29.27;98299.25;7392818;19;20010;-59